Time;durP1;ratioP1;P1;durP2;ratioP2;P2;SDS_P1;SDS_P2;PMS_P1;PMS_P2;Temp;Humidity;BMP_temperature;BMP_pressure;BME280_temperature;BME280_humidity;BME280_pressure;Samples;Min_cycle;Max_cycle;Signal;HPM_P1;HPM_P2
2022/01/13 00:00:18;;;;;;;;;;;2.20;99.90;;;;;;5147678;27;20386;-77
2022/01/13 00:02:44;;;;;;;;;;;2.10;99.90;;;;;;5133382;27;19911;-77
2022/01/13 00:05:10;;;;;;;;;;;2.20;99.90;;;;;;5134005;27;20011;-76
2022/01/13 00:07:36;;;;;;;;;;;2.10;99.90;;;;;;5133997;27;19973;-76
2022/01/13 00:10:03;;;;;;;;;;;2.10;99.90;;;;;;5114865;27;19957;-76
2022/01/13 00:12:34;;;;;;;;;;;2.00;99.90;;;;;;5115642;27;20374;-76
2022/01/13 00:22:47;;;;;;;;;;;1.90;99.90;;;;;;5133823;27;20368;-75
2022/01/13 00:25:15;;;;;;;;;;;2.00;99.90;;;;;;5133650;27;19926;-76
2022/01/13 00:27:47;;;;;;;;;;;2.10;99.90;;;;;;5133441;27;19912;-75
2022/01/13 00:30:16;;;;;;;;;;;2.20;99.90;;;;;;5133501;27;19954;-77
2022/01/13 00:32:42;;;;;;;;;;;2.20;99.90;;;;;;5133101;27;19911;-76
2022/01/13 00:35:08;;;;;;;;;;;2.10;99.90;;;;;;5133384;27;20379;-76
2022/01/13 00:37:35;;;;;;;;;;;2.10;99.90;;;;;;5143350;27;19918;-76
2022/01/13 00:40:01;;;;;;;;;;;2.00;99.90;;;;;;5131040;27;20578;-76
2022/01/13 00:42:27;;;;;;;;;;;2.00;99.90;;;;;;5134234;27;19933;-75
2022/01/13 00:44:53;;;;;;;;;;;1.90;99.90;;;;;;5133142;27;19921;-75
2022/01/13 00:47:20;;;;;;;;;;;1.90;99.90;;;;;;5141867;27;20002;-76
2022/01/13 00:49:46;;;;;;;;;;;1.90;99.90;;;;;;5153981;27;19914;-76
2022/01/13 00:52:11;;;;;;;;;;;2.00;99.90;;;;;;5154613;27;19907;-76
2022/01/13 00:54:37;;;;;;;;;;;2.10;99.90;;;;;;5154875;27;19908;-76
2022/01/13 00:57:02;;;;;;;;;;;2.20;99.90;;;;;;5153632;27;20092;-76
2022/01/13 00:59:28;;;;;;;;;;;2.10;99.90;;;;;;5154548;27;19907;-76
2022/01/13 01:01:54;;;;;;;;;;;2.00;99.90;;;;;;5153953;27;19911;-75
2022/01/13 01:04:20;;;;;;;;;;;1.90;99.90;;;;;;5154399;27;19911;-76
2022/01/13 01:06:46;;;;;;;;;;;1.80;99.90;;;;;;5153702;27;19919;-75
2022/01/13 01:09:18;;;;;;;;;;;1.70;99.90;;;;;;5136049;27;20370;-76
2022/01/13 01:11:46;;;;;;;;;;;1.70;99.90;;;;;;5153569;27;19930;-76
2022/01/13 01:14:14;;;;;;;;;;;1.70;99.90;;;;;;5154053;27;20415;-75
2022/01/13 01:16:40;;;;;;;;;;;1.70;99.90;;;;;;5154052;27;20252;-75
2022/01/13 01:19:08;;;;;;;;;;;1.70;99.90;;;;;;5153549;27;19909;-75
2022/01/13 01:27:00;;;;;;;;;;;1.50;99.90;;;;;;5153932;27;19915;-75
2022/01/13 01:29:43;;;;;;;;;;;1.40;99.90;;;;;;5153909;27;19920;-76
2022/01/13 01:32:11;;;;;;;;;;;1.40;99.90;;;;;;5153378;27;19907;-75
2022/01/13 01:34:56;;;;;;;;;;;1.40;99.90;;;;;;5153292;27;19907;-76
2022/01/13 01:37:24;;;;;;;;;;;1.40;99.90;;;;;;5153779;27;19914;-76
2022/01/13 01:39:50;;;;;;;;;;;1.40;99.90;;;;;;5153192;27;19911;-75
2022/01/13 01:42:18;;;;;;;;;;;1.30;99.90;;;;;;5153792;27;19911;-75
2022/01/13 01:44:46;;;;;;;;;;;1.40;99.90;;;;;;5153507;27;19929;-75
2022/01/13 01:47:16;;;;;;;;;;;1.40;99.90;;;;;;5153205;27;19915;-76
2022/01/13 01:49:46;;;;;;;;;;;1.40;99.90;;;;;;5134821;27;19919;-76
2022/01/13 01:52:12;;;;;;;;;;;1.40;99.90;;;;;;5133018;28;20360;-76
2022/01/13 01:54:38;;;;;;;;;;;1.40;99.90;;;;;;5132926;28;19907;-75
2022/01/13 01:57:04;;;;;;;;;;;1.40;99.90;;;;;;5132484;28;20022;-75
2022/01/13 01:59:32;;;;;;;;;;;1.40;99.90;;;;;;5132948;28;20002;-76
2022/01/13 02:01:59;;;;;;;;;;;1.50;99.90;;;;;;5132348;28;19907;-76
2022/01/13 02:04:26;;;;;;;;;;;1.40;99.90;;;;;;5133366;27;19908;-75
2022/01/13 02:06:56;;;;;;;;;;;1.40;99.90;;;;;;5135844;27;19919;-75
2022/01/13 02:09:22;;;;;;;;;;;1.40;99.90;;;;;;5137122;27;19915;-75
2022/01/13 02:11:53;;;;;;;;;;;1.40;99.90;;;;;;5136598;27;19915;-74
2022/01/13 02:16:52;;;;;;;;;;;1.30;99.90;;;;;;5136275;27;20276;-75
2022/01/13 02:19:18;;;;;;;;;;;1.30;99.90;;;;;;5136814;27;19914;-76
2022/01/13 02:21:44;;;;;;;;;;;1.30;99.90;;;;;;5136830;27;19907;-75
2022/01/13 02:24:10;;;;;;;;;;;1.20;99.90;;;;;;5118064;27;19913;-76
2022/01/13 02:26:36;;;;;;;;;;;1.20;99.90;;;;;;5136409;27;19961;-75
2022/01/13 02:29:02;;;;;;;;;;;1.10;99.90;;;;;;5135918;27;19911;-75
2022/01/13 02:31:27;;;;;;;;;;;1.10;99.90;;;;;;5136487;27;19914;-76
2022/01/13 02:33:54;;;;;;;;;;;1.00;99.90;;;;;;5136996;27;19911;-76
2022/01/13 02:36:21;;;;;;;;;;;1.00;99.90;;;;;;5137139;27;19915;-76
2022/01/13 02:38:50;;;;;;;;;;;1.00;99.90;;;;;;5136547;27;19949;-75
2022/01/13 02:41:16;;;;;;;;;;;1.00;99.90;;;;;;5136226;27;19960;-75
2022/01/13 02:43:43;;;;;;;;;;;1.00;99.90;;;;;;5136504;27;20256;-76
2022/01/13 02:48:59;;;;;;;;;;;1.10;99.90;;;;;;5135352;27;19959;-76
2022/01/13 02:51:25;;;;;;;;;;;1.10;99.90;;;;;;5136751;27;20344;-76
2022/01/13 02:53:51;;;;;;;;;;;1.10;99.90;;;;;;5135600;27;19994;-75
2022/01/13 02:56:16;;;;;;;;;;;1.20;99.90;;;;;;5135726;27;19945;-76
2022/01/13 02:58:42;;;;;;;;;;;1.30;99.90;;;;;;5136244;27;20355;-76
2022/01/13 03:01:08;;;;;;;;;;;1.40;99.90;;;;;;5134938;27;20001;-78
2022/01/13 03:03:35;;;;;;;;;;;1.40;99.90;;;;;;5136176;27;19930;-76
2022/01/13 03:06:08;;;;;;;;;;;1.40;99.90;;;;;;5135132;27;20382;-76
2022/01/13 03:08:33;;;;;;;;;;;1.40;99.90;;;;;;5136033;27;19918;-76
2022/01/13 03:10:59;;;;;;;;;;;1.40;99.90;;;;;;5135051;27;20361;-75
2022/01/13 03:13:28;;;;;;;;;;;1.40;99.90;;;;;;5135981;27;19915;-75
2022/01/13 03:15:53;;;;;;;;;;;1.40;99.90;;;;;;5134583;27;19961;-74
2022/01/13 03:18:19;;;;;;;;;;;1.40;99.90;;;;;;5134946;27;20294;-76
2022/01/13 03:20:44;;;;;;;;;;;1.30;99.90;;;;;;5135777;27;20318;-76
2022/01/13 03:23:15;;;;;;;;;;;1.20;99.90;;;;;;5134909;27;19912;-76
2022/01/13 03:25:44;;;;;;;;;;;1.20;99.90;;;;;;5135768;27;20345;-76
2022/01/13 03:28:15;;;;;;;;;;;1.20;99.90;;;;;;5134751;27;19964;-76
2022/01/13 03:30:41;;;;;;;;;;;1.20;99.90;;;;;;5135513;27;20395;-76
2022/01/13 03:33:07;;;;;;;;;;;1.10;99.90;;;;;;5134739;27;19907;-76
2022/01/13 03:35:33;;;;;;;;;;;1.10;99.90;;;;;;5135089;27;20388;-76
2022/01/13 03:37:59;;;;;;;;;;;1.10;99.90;;;;;;5134575;27;20007;-76
2022/01/13 03:40:25;;;;;;;;;;;1.10;99.90;;;;;;5135228;27;19946;-76
2022/01/13 03:42:53;;;;;;;;;;;1.10;99.90;;;;;;5135072;27;19908;-76
2022/01/13 03:45:21;;;;;;;;;;;1.10;99.90;;;;;;5134777;27;19916;-76
2022/01/13 03:47:47;;;;;;;;;;;1.10;99.90;;;;;;5135189;27;19911;-76
2022/01/13 03:50:13;;;;;;;;;;;1.00;99.90;;;;;;5134294;27;20513;-76
2022/01/13 03:52:38;;;;;;;;;;;1.00;99.90;;;;;;5135069;27;19908;-76
2022/01/13 03:55:23;;;;;;;;;;;1.10;99.90;;;;;;5115954;27;19915;-76
2022/01/13 03:57:51;;;;;;;;;;;1.00;99.90;;;;;;5135055;27;19907;-76
2022/01/13 04:00:40;;;;;;;;;;;1.00;99.90;;;;;;5134258;27;20147;-76
2022/01/13 04:03:06;;;;;;;;;;;1.00;99.90;;;;;;5134035;27;19911;-76
2022/01/13 04:05:32;;;;;;;;;;;1.00;99.90;;;;;;5134654;27;20428;-76
2022/01/13 04:07:57;;;;;;;;;;;0.90;99.90;;;;;;5134120;27;19915;-75
2022/01/13 04:10:23;;;;;;;;;;;1.00;99.90;;;;;;5134844;27;20367;-75
2022/01/13 04:12:49;;;;;;;;;;;1.10;99.90;;;;;;5134557;27;19912;-75
2022/01/13 04:15:15;;;;;;;;;;;1.10;99.90;;;;;;5133486;27;19912;-76
2022/01/13 04:17:40;;;;;;;;;;;1.10;99.90;;;;;;5134616;27;19907;-75
2022/01/13 04:20:06;;;;;;;;;;;1.10;99.90;;;;;;5133745;27;19915;-74
2022/01/13 04:22:32;;;;;;;;;;;1.10;99.90;;;;;;5134648;27;19908;-76
2022/01/13 04:24:57;;;;;;;;;;;1.00;99.90;;;;;;5133684;27;19907;-74
2022/01/13 04:27:26;;;;;;;;;;;1.00;99.90;;;;;;5133942;27;19908;-76
2022/01/13 04:30:23;;;;;;;;;;;1.00;99.90;;;;;;5134549;27;19914;-75
2022/01/13 04:32:37;;;;;;;;;;;0.90;99.90;;;;;;5132583;27;19930;-76
2022/01/13 04:35:03;;;;;;;;;;;0.90;99.90;;;;;;5133525;27;20422;-76
2022/01/13 04:37:29;;;;;;;;;;;0.80;99.90;;;;;;5134723;27;19964;-75
2022/01/13 04:39:54;;;;;;;;;;;0.70;99.90;;;;;;5134609;27;19956;-77
2022/01/13 04:42:20;;;;;;;;;;;0.70;99.90;;;;;;5133664;27;19911;-76
2022/01/13 04:44:45;;;;;;;;;;;0.70;99.90;;;;;;5134096;27;19929;-77
2022/01/13 04:47:11;;;;;;;;;;;0.70;99.90;;;;;;5133230;27;19916;-75
2022/01/13 04:49:36;;;;;;;;;;;0.70;99.90;;;;;;5133608;27;19995;-76
2022/01/13 04:52:02;;;;;;;;;;;0.70;99.90;;;;;;5133211;27;19964;-76
2022/01/13 04:54:28;;;;;;;;;;;0.70;99.90;;;;;;5134155;27;19958;-76
2022/01/13 04:59:31;;;;;;;;;;;0.70;99.90;;;;;;5134046;27;20453;-76
2022/01/13 05:01:57;;;;;;;;;;;0.60;99.90;;;;;;5135551;27;19912;-76
2022/01/13 05:04:22;;;;;;;;;;;0.60;99.90;;;;;;5135792;27;19913;-76
2022/01/13 05:06:48;;;;;;;;;;;0.60;99.90;;;;;;5133953;27;20294;-76
2022/01/13 05:09:13;;;;;;;;;;;0.60;99.90;;;;;;5132665;27;19914;-76
2022/01/13 05:11:39;;;;;;;;;;;0.60;99.90;;;;;;5133622;27;19916;-76
2022/01/13 05:14:05;;;;;;;;;;;0.60;99.90;;;;;;5132864;27;19995;-75
2022/01/13 05:16:53;;;;;;;;;;;0.60;99.90;;;;;;5133676;27;19914;-75
2022/01/13 05:20:10;;;;;;;;;;;0.60;99.90;;;;;;5132788;27;19912;-75
2022/01/13 05:24:36;;;;;;;;;;;0.70;99.90;;;;;;5133606;27;19911;-76
2022/01/13 05:27:02;;;;;;;;;;;0.70;99.90;;;;;;5132555;27;19915;-75
2022/01/13 05:29:27;;;;;;;;;;;0.70;99.90;;;;;;5133107;28;19914;-76
2022/01/13 05:31:53;;;;;;;;;;;0.70;99.90;;;;;;5133353;28;19945;-76
2022/01/13 05:34:19;;;;;;;;;;;0.70;99.90;;;;;;5132633;28;20026;-76
2022/01/13 05:36:45;;;;;;;;;;;0.70;99.90;;;;;;5133129;28;19969;-76
2022/01/13 05:39:11;;;;;;;;;;;0.70;99.90;;;;;;5132376;27;19907;-75
2022/01/13 05:41:37;;;;;;;;;;;0.70;99.90;;;;;;5118947;27;19955;-76
2022/01/13 05:44:02;;;;;;;;;;;0.70;99.90;;;;;;5137145;27;19914;-74
2022/01/13 05:46:28;;;;;;;;;;;0.70;99.90;;;;;;5137285;27;20416;-76
2022/01/13 05:48:54;;;;;;;;;;;0.60;99.90;;;;;;5137214;27;19931;-76
2022/01/13 05:51:25;;;;;;;;;;;0.60;99.90;;;;;;5136588;27;19911;-76
2022/01/13 05:53:51;;;;;;;;;;;0.60;99.90;;;;;;5137532;27;19907;-76
2022/01/13 05:56:17;;;;;;;;;;;0.60;99.90;;;;;;5136426;27;19914;-76
2022/01/13 05:58:42;;;;;;;;;;;0.60;99.90;;;;;;5138370;27;20024;-76
2022/01/13 06:01:08;;;;;;;;;;;0.60;99.90;;;;;;5140241;27;19998;-75
2022/01/13 06:03:34;;;;;;;;;;;0.60;99.90;;;;;;5137387;27;19908;-76
2022/01/13 06:05:59;;;;;;;;;;;0.60;99.90;;;;;;5137146;27;19976;-76
2022/01/13 06:08:25;;;;;;;;;;;0.60;99.90;;;;;;5136589;27;20304;-76
2022/01/13 06:10:50;;;;;;;;;;;0.50;99.90;;;;;;5137215;27;19946;-77
2022/01/13 06:13:16;;;;;;;;;;;0.60;99.90;;;;;;5136221;27;19915;-75
2022/01/13 06:15:42;;;;;;;;;;;0.60;99.90;;;;;;5137056;27;19925;-75
2022/01/13 06:18:14;;;;;;;;;;;0.60;99.90;;;;;;5136240;27;20359;-75
2022/01/13 06:20:40;;;;;;;;;;;0.60;99.90;;;;;;5136980;27;20253;-76
2022/01/13 06:23:07;;;;;;;;;;;0.50;99.90;;;;;;5136299;27;19907;-75
2022/01/13 06:25:33;;;;;;;;;;;0.50;99.90;;;;;;5136848;27;19970;-75
2022/01/13 06:27:59;;;;;;;;;;;0.50;99.90;;;;;;5136794;27;19950;-76
2022/01/13 06:30:24;;;;;;;;;;;0.60;99.90;;;;;;5135970;27;20506;-75
2022/01/13 06:32:50;;;;;;;;;;;0.60;99.90;;;;;;5118246;27;19915;-76
2022/01/13 06:35:15;;;;;;;;;;;0.50;99.90;;;;;;5135864;27;19911;-76
2022/01/13 06:37:41;;;;;;;;;;;0.50;99.90;;;;;;5136039;27;20398;-76
2022/01/13 06:40:07;;;;;;;;;;;0.50;99.90;;;;;;5136021;27;19973;-74
2022/01/13 06:42:33;;;;;;;;;;;0.40;99.90;;;;;;5136178;27;19907;-76
2022/01/13 06:44:58;;;;;;;;;;;0.50;99.90;;;;;;5136432;27;19908;-76
2022/01/13 06:47:24;;;;;;;;;;;0.50;99.90;;;;;;5135319;27;19916;-75
2022/01/13 06:49:49;;;;;;;;;;;0.50;99.90;;;;;;5136306;27;19912;-76
2022/01/13 06:52:16;;;;;;;;;;;0.50;99.90;;;;;;5135394;27;19908;-76
2022/01/13 06:54:42;;;;;;;;;;;0.50;99.90;;;;;;5136268;27;19912;-76
2022/01/13 06:57:08;;;;;;;;;;;0.50;99.90;;;;;;5135432;27;19931;-74
2022/01/13 06:59:33;;;;;;;;;;;0.60;99.90;;;;;;5135540;27;20336;-78
2022/01/13 07:02:01;;;;;;;;;;;0.60;99.90;;;;;;5135868;27;19916;-77
2022/01/13 07:04:27;;;;;;;;;;;0.50;99.90;;;;;;5135330;27;20551;-77
2022/01/13 07:06:53;;;;;;;;;;;0.50;99.90;;;;;;5135650;27;19926;-77
2022/01/13 07:09:19;;;;;;;;;;;0.50;99.90;;;;;;5134862;27;19911;-77
2022/01/13 07:11:45;;;;;;;;;;;0.60;99.90;;;;;;5135872;27;19958;-77
2022/01/13 07:14:10;;;;;;;;;;;0.50;99.90;;;;;;5135084;27;19915;-75
2022/01/13 07:16:36;;;;;;;;;;;0.50;99.90;;;;;;5135764;27;19908;-77
2022/01/13 07:19:05;;;;;;;;;;;0.60;99.90;;;;;;5135833;27;20359;-77
2022/01/13 07:21:31;;;;;;;;;;;0.60;99.90;;;;;;5134940;27;19907;-77
2022/01/13 07:23:57;;;;;;;;;;;0.60;99.90;;;;;;5135649;27;19998;-76
2022/01/13 07:26:22;;;;;;;;;;;0.60;99.90;;;;;;5116118;27;20010;-77
2022/01/13 07:28:48;;;;;;;;;;;0.60;99.90;;;;;;5136021;27;19914;-77
2022/01/13 07:31:14;;;;;;;;;;;0.60;99.90;;;;;;5134847;27;19907;-77
2022/01/13 07:33:40;;;;;;;;;;;0.60;99.90;;;;;;5135325;27;20019;-77
2022/01/13 07:36:06;;;;;;;;;;;0.70;99.90;;;;;;5135452;27;19907;-77
2022/01/13 07:38:31;;;;;;;;;;;0.70;99.90;;;;;;5134305;27;19919;-78
2022/01/13 07:40:57;;;;;;;;;;;0.80;99.90;;;;;;5135371;27;19914;-78
2022/01/13 07:43:24;;;;;;;;;;;0.90;99.90;;;;;;5134324;27;19960;-77
2022/01/13 07:45:50;;;;;;;;;;;1.00;99.90;;;;;;5134939;27;19919;-77
2022/01/13 07:48:16;;;;;;;;;;;1.10;99.90;;;;;;5140997;27;20420;-76
2022/01/13 07:50:42;;;;;;;;;;;1.10;99.90;;;;;;5155821;27;19955;-77
2022/01/13 07:53:08;;;;;;;;;;;1.20;99.90;;;;;;5155626;27;19933;-77
2022/01/13 07:55:35;;;;;;;;;;;1.20;99.90;;;;;;5155118;27;19907;-76
2022/01/13 07:58:00;;;;;;;;;;;1.20;99.90;;;;;;5155813;27;19958;-77
2022/01/13 08:00:26;;;;;;;;;;;1.30;99.90;;;;;;5154652;27;19994;-76
2022/01/13 08:02:51;;;;;;;;;;;1.40;99.90;;;;;;5154720;27;19913;-76
2022/01/13 08:05:17;;;;;;;;;;;1.40;99.90;;;;;;5154428;27;19919;-75
2022/01/13 08:07:43;;;;;;;;;;;1.40;99.90;;;;;;5155360;27;19980;-76
2022/01/13 08:10:09;;;;;;;;;;;1.40;99.90;;;;;;5155470;27;19907;-76
2022/01/13 08:12:34;;;;;;;;;;;1.40;99.90;;;;;;5154579;27;19907;-77
2022/01/13 08:15:00;;;;;;;;;;;1.40;99.90;;;;;;5155245;27;19959;-76
2022/01/13 08:20:10;;;;;;;;;;;1.40;99.90;;;;;;5152431;27;19934;-77
2022/01/13 08:22:36;;;;;;;;;;;1.40;99.90;;;;;;5138803;27;20006;-77
2022/01/13 08:25:02;;;;;;;;;;;1.40;99.90;;;;;;5146947;27;20390;-76
2022/01/13 08:27:28;;;;;;;;;;;1.50;99.90;;;;;;5153878;27;19977;-77
2022/01/13 08:29:53;;;;;;;;;;;1.40;99.90;;;;;;5154984;27;19953;-77
2022/01/13 08:32:19;;;;;;;;;;;1.50;99.90;;;;;;5153914;27;19933;-77
2022/01/13 08:34:45;;;;;;;;;;;1.40;99.90;;;;;;5154127;27;19911;-78
2022/01/13 08:37:11;;;;;;;;;;;1.40;99.90;;;;;;5155779;27;20267;-78
2022/01/13 08:39:43;;;;;;;;;;;1.40;99.90;;;;;;5131943;27;19922;-76
2022/01/13 08:42:08;;;;;;;;;;;1.40;99.90;;;;;;5142745;27;19962;-77
2022/01/13 08:44:34;;;;;;;;;;;1.40;99.90;;;;;;5143433;27;19914;-77
2022/01/13 08:47:00;;;;;;;;;;;1.40;99.90;;;;;;5143757;27;19922;-76
2022/01/13 08:49:25;;;;;;;;;;;1.40;99.90;;;;;;5142261;27;19918;-76
2022/01/13 08:51:51;;;;;;;;;;;1.50;99.90;;;;;;5144404;27;19911;-78
2022/01/13 08:54:19;;;;;;;;;;;1.50;99.90;;;;;;5142294;27;19914;-75
2022/01/13 08:56:45;;;;;;;;;;;1.60;99.90;;;;;;5133599;27;20313;-77
2022/01/13 08:59:11;;;;;;;;;;;1.60;99.90;;;;;;5133524;27;19954;-77
2022/01/13 09:01:36;;;;;;;;;;;1.70;99.90;;;;;;5150002;27;20018;-78
2022/01/13 09:04:02;;;;;;;;;;;1.80;99.90;;;;;;5154326;27;20352;-79
2022/01/13 09:06:28;;;;;;;;;;;1.90;99.90;;;;;;5134698;27;19968;-78
2022/01/13 09:08:53;;;;;;;;;;;2.00;99.90;;;;;;5131516;27;20347;-77
2022/01/13 09:11:19;;;;;;;;;;;2.10;99.90;;;;;;5158244;27;19926;-78
2022/01/13 09:13:44;;;;;;;;;;;2.20;99.90;;;;;;5150810;27;19970;-78
2022/01/13 09:16:15;;;;;;;;;;;2.30;99.90;;;;;;5145612;27;19907;-78
2022/01/13 09:21:13;;;;;;;;;;;2.50;99.90;;;;;;5151711;27;20308;-78
2022/01/13 09:23:39;;;;;;;;;;;2.50;99.90;;;;;;5153007;27;19915;-76
2022/01/13 09:26:05;;;;;;;;;;;2.60;99.90;;;;;;5153304;27;19938;-77
2022/01/13 09:28:31;;;;;;;;;;;2.60;99.90;;;;;;5134451;27;20043;-78
2022/01/13 09:30:57;;;;;;;;;;;2.80;99.90;;;;;;5135182;27;19907;-77
2022/01/13 09:33:22;;;;;;;;;;;2.90;99.90;;;;;;5152478;27;20009;-78
2022/01/13 09:35:48;;;;;;;;;;;3.10;99.90;;;;;;5149800;27;19918;-78
2022/01/13 09:38:13;;;;;;;;;;;3.30;99.90;;;;;;5133158;28;19939;-77
2022/01/13 09:40:42;;;;;;;;;;;3.50;99.90;;;;;;5132371;28;20170;-77
2022/01/13 09:43:08;;;;;;;;;;;3.70;99.90;;;;;;5133202;28;19951;-77
2022/01/13 09:45:34;;;;;;;;;;;3.80;99.90;;;;;;5132038;28;19961;-78
2022/01/13 09:47:59;;;;;;;;;;;3.90;99.90;;;;;;5132864;28;19920;-77
2022/01/13 09:50:25;;;;;;;;;;;4.10;99.90;;;;;;5132101;28;19915;-78
2022/01/13 09:52:51;;;;;;;;;;;4.30;99.90;;;;;;5143604;27;19908;-78
2022/01/13 09:55:17;;;;;;;;;;;4.40;99.90;;;;;;5123203;27;19915;-76
2022/01/13 09:57:45;;;;;;;;;;;4.50;99.90;;;;;;5133271;27;20385;-77
2022/01/13 10:00:12;;;;;;;;;;;4.70;99.90;;;;;;5132810;28;19962;-77
2022/01/13 10:02:37;;;;;;;;;;;4.80;99.90;;;;;;5131992;28;19911;-77
2022/01/13 10:05:04;;;;;;;;;;;4.90;99.90;;;;;;5132683;27;19919;-76
2022/01/13 10:07:30;;;;;;;;;;;4.90;99.90;;;;;;5131514;28;19919;-77
2022/01/13 10:09:57;;;;;;;;;;;5.00;99.90;;;;;;5132887;28;19907;-77
2022/01/13 10:12:24;;;;;;;;;;;5.20;99.90;;;;;;5132151;27;20014;-76
2022/01/13 10:17:22;;;;;;;;;;;5.20;99.90;;;;;;5132180;28;20019;-74
2022/01/13 10:19:50;;;;;;;;;;;5.30;99.90;;;;;;5132711;28;20385;-78
2022/01/13 10:22:16;;;;;;;;;;;5.30;99.90;;;;;;5132783;28;19998;-78
2022/01/13 10:24:52;;;;;;;;;;;5.30;99.90;;;;;;5131915;28;19907;-78
2022/01/13 10:27:19;;;;;;;;;;;5.40;99.90;;;;;;5135431;27;20288;-78
2022/01/13 10:29:49;;;;;;;;;;;5.40;99.90;;;;;;5141176;27;19917;-78
2022/01/13 10:32:16;;;;;;;;;;;5.60;99.90;;;;;;5147274;27;19911;-78
2022/01/13 10:34:43;;;;;;;;;;;5.60;99.90;;;;;;5146714;27;19903;-78
2022/01/13 10:37:14;;;;;;;;;;;5.70;99.90;;;;;;5157459;27;19914;-79
2022/01/13 10:39:48;;;;;;;;;;;5.80;99.90;;;;;;5156299;27;19911;-79
2022/01/13 10:45:00;;;;;;;;;;;5.90;99.90;;;;;;5113614;27;19919;-77
2022/01/13 10:47:26;;;;;;;;;;;5.90;99.90;;;;;;5152845;27;19916;-77
2022/01/13 10:49:52;;;;;;;;;;;6.00;99.90;;;;;;5156475;27;19915;-78
2022/01/13 10:52:24;;;;;;;;;;;6.00;99.90;;;;;;5157109;27;20013;-79
2022/01/13 10:54:53;;;;;;;;;;;6.10;99.90;;;;;;5163380;27;19911;-79
2022/01/13 10:57:21;;;;;;;;;;;6.10;99.90;;;;;;5165916;27;20496;-79
2022/01/13 10:59:47;;;;;;;;;;;6.10;99.90;;;;;;5160259;27;19916;-78
2022/01/13 11:02:13;;;;;;;;;;;6.10;99.90;;;;;;5141849;27;20384;-78
2022/01/13 11:04:38;;;;;;;;;;;6.10;99.90;;;;;;5116426;27;19968;-77
2022/01/13 11:07:14;;;;;;;;;;;6.20;99.90;;;;;;5135540;27;20027;-77
2022/01/13 11:09:44;;;;;;;;;;;6.20;99.90;;;;;;5134695;27;20356;-77
2022/01/13 11:12:10;;;;;;;;;;;6.20;99.90;;;;;;5135575;27;19934;-78
2022/01/13 11:14:42;;;;;;;;;;;6.20;99.90;;;;;;5134841;27;19952;-78
2022/01/13 11:17:11;;;;;;;;;;;6.20;99.90;;;;;;5135567;27;19912;-78
2022/01/13 11:19:44;;;;;;;;;;;6.20;99.90;;;;;;5134788;27;20382;-77
2022/01/13 11:22:12;;;;;;;;;;;6.30;99.90;;;;;;5135723;27;19992;-78
2022/01/13 11:24:38;;;;;;;;;;;6.30;99.90;;;;;;5134693;27;19908;-78
2022/01/13 11:27:05;;;;;;;;;;;6.30;99.90;;;;;;5135124;27;19967;-79
2022/01/13 11:29:30;;;;;;;;;;;6.30;99.90;;;;;;5134844;27;19907;-78
2022/01/13 11:31:57;;;;;;;;;;;6.30;99.90;;;;;;5135985;27;19915;-78
2022/01/13 11:34:23;;;;;;;;;;;6.40;99.90;;;;;;5135466;27;19914;-78
2022/01/13 11:36:49;;;;;;;;;;;6.40;99.90;;;;;;5134307;27;19911;-78
2022/01/13 11:39:15;;;;;;;;;;;6.40;99.90;;;;;;5134542;27;19915;-78
2022/01/13 11:41:59;;;;;;;;;;;6.40;99.90;;;;;;5134424;27;19907;-77
2022/01/13 11:44:24;;;;;;;;;;;6.40;99.90;;;;;;5135148;27;19952;-77
2022/01/13 11:46:50;;;;;;;;;;;6.50;99.90;;;;;;5134527;27;19923;-77
2022/01/13 11:49:24;;;;;;;;;;;6.50;99.90;;;;;;5135226;27;20406;-78
2022/01/13 11:51:58;;;;;;;;;;;6.50;99.90;;;;;;5134430;27;19912;-77
2022/01/13 11:54:31;;;;;;;;;;;6.50;99.90;;;;;;5135108;27;19911;-78
2022/01/13 11:57:10;;;;;;;;;;;6.50;99.90;;;;;;5116518;27;19942;-78
2022/01/13 11:59:36;;;;;;;;;;;6.60;99.90;;;;;;5134274;27;19986;-78
2022/01/13 12:02:20;;;;;;;;;;;6.50;99.90;;;;;;5134850;27;19946;-78
2022/01/13 12:05:04;;;;;;;;;;;6.50;99.90;;;;;;5133515;27;19969;-77
2022/01/13 12:07:33;;;;;;;;;;;6.60;99.90;;;;;;5134275;27;20452;-76
2022/01/13 12:09:59;;;;;;;;;;;6.60;99.90;;;;;;5134349;27;19912;-78
2022/01/13 12:12:28;;;;;;;;;;;6.60;99.90;;;;;;5134432;27;20370;-78
2022/01/13 12:15:12;;;;;;;;;;;6.70;99.90;;;;;;5139589;27;19918;-78
2022/01/13 12:17:48;;;;;;;;;;;6.70;99.90;;;;;;5143014;27;20352;-78
2022/01/13 12:20:27;;;;;;;;;;;6.70;99.90;;;;;;5133511;27;19929;-79
2022/01/13 12:23:05;;;;;;;;;;;6.70;99.90;;;;;;5154063;27;19918;-77
2022/01/13 12:25:31;;;;;;;;;;;6.70;99.90;;;;;;5148387;27;19911;-76
2022/01/13 12:27:59;;;;;;;;;;;6.60;99.90;;;;;;5144129;27;19907;-78
2022/01/13 12:30:28;;;;;;;;;;;6.70;99.90;;;;;;5142503;27;20383;-77
2022/01/13 12:33:01;;;;;;;;;;;6.70;99.90;;;;;;5133790;27;19939;-77
2022/01/13 12:35:39;;;;;;;;;;;6.70;99.90;;;;;;5134295;27;19908;-76
2022/01/13 12:38:08;;;;;;;;;;;6.70;99.90;;;;;;5134052;27;19908;-76
2022/01/13 12:40:45;;;;;;;;;;;6.70;99.90;;;;;;5133126;27;20002;-75
2022/01/13 12:44:19;;;;;;;;;;;6.80;99.90;;;;;;5134202;27;19908;-77
2022/01/13 12:46:06;;;;;;;;;;;6.70;99.90;;;;;;5118974;27;19959;-77
2022/01/13 12:48:32;;;;;;;;;;;6.80;99.90;;;;;;5132980;27;19911;-76
2022/01/13 12:50:59;;;;;;;;;;;6.80;99.90;;;;;;5133819;27;19907;-77
2022/01/13 12:53:27;;;;;;;;;;;6.80;99.90;;;;;;5133796;27;19946;-77
2022/01/13 12:56:00;;;;;;;;;;;6.80;99.90;;;;;;5132960;27;19903;-76
2022/01/13 12:58:28;;;;;;;;;;;6.80;99.90;;;;;;5133603;27;19908;-78
2022/01/13 13:00:58;;;;;;;;;;;6.80;99.90;;;;;;5114714;27;20550;-78
2022/01/13 13:03:23;;;;;;;;;;;6.80;99.90;;;;;;5133808;27;20350;-79
2022/01/13 13:05:51;;;;;;;;;;;6.80;99.90;;;;;;5132596;27;20011;-78
2022/01/13 13:08:21;;;;;;;;;;;6.80;99.90;;;;;;5133563;27;19913;-78
2022/01/13 13:10:49;;;;;;;;;;;6.80;99.90;;;;;;5132729;27;19907;-76
2022/01/13 13:13:16;;;;;;;;;;;6.70;99.90;;;;;;5134293;27;19907;-77
2022/01/13 13:15:49;;;;;;;;;;;6.70;99.90;;;;;;5132712;27;19907;-77
2022/01/13 13:18:19;;;;;;;;;;;6.80;99.90;;;;;;5144207;27;19911;-77
2022/01/13 13:20:45;;;;;;;;;;;6.80;99.90;;;;;;5140897;27;20052;-79
2022/01/13 13:23:10;;;;;;;;;;;6.80;99.90;;;;;;5142518;27;19943;-77
2022/01/13 13:25:37;;;;;;;;;;;6.80;99.90;;;;;;5144432;27;20063;-76
2022/01/13 13:28:24;;;;;;;;;;;6.80;99.90;;;;;;5144417;27;19911;-77
2022/01/13 13:30:51;;;;;;;;;;;6.80;99.90;;;;;;5143067;27;19915;-78
2022/01/13 13:33:18;;;;;;;;;;;6.70;99.90;;;;;;5149431;27;19914;-78
2022/01/13 13:35:44;;;;;;;;;;;6.70;99.90;;;;;;5133563;27;19907;-78
2022/01/13 13:38:11;;;;;;;;;;;6.70;99.90;;;;;;5154866;27;19918;-78
2022/01/13 13:40:41;;;;;;;;;;;6.70;99.90;;;;;;5157153;27;19914;-77
2022/01/13 13:43:07;;;;;;;;;;;6.70;99.90;;;;;;5152048;27;19914;-78
2022/01/13 13:45:32;;;;;;;;;;;6.70;99.90;;;;;;5141874;27;19907;-78
2022/01/13 13:47:59;;;;;;;;;;;6.70;99.90;;;;;;5136693;27;19993;-78
2022/01/13 13:50:25;;;;;;;;;;;6.70;99.90;;;;;;5148062;27;19971;-77
2022/01/13 13:53:07;;;;;;;;;;;6.70;99.90;;;;;;5142400;27;19919;-77
2022/01/13 13:55:33;;;;;;;;;;;6.60;99.90;;;;;;5137426;27;19912;-77
2022/01/13 13:57:58;;;;;;;;;;;6.70;99.90;;;;;;5137466;27;20552;-77
2022/01/13 14:00:27;;;;;;;;;;;6.70;99.90;;;;;;5142239;27;20005;-77
2022/01/13 14:02:54;;;;;;;;;;;6.60;99.90;;;;;;5152225;27;20001;-78
2022/01/13 14:05:27;;;;;;;;;;;6.60;99.90;;;;;;5157272;27;19923;-77
2022/01/13 14:07:53;;;;;;;;;;;6.60;99.90;;;;;;5156987;27;19911;-77
2022/01/13 14:10:21;;;;;;;;;;;6.70;99.90;;;;;;5147196;27;20248;-77
2022/01/13 14:12:47;;;;;;;;;;;6.60;99.90;;;;;;5125373;27;19990;-76
2022/01/13 14:15:15;;;;;;;;;;;6.60;99.90;;;;;;5140920;27;20035;-76
2022/01/13 14:17:41;;;;;;;;;;;6.60;99.90;;;;;;5141451;27;20342;-76
2022/01/13 14:20:09;;;;;;;;;;;6.60;99.90;;;;;;5129905;27;19915;-77
2022/01/13 14:22:34;;;;;;;;;;;6.60;99.90;;;;;;5157225;27;19907;-77
2022/01/13 14:25:00;;;;;;;;;;;6.50;99.90;;;;;;5137534;27;20386;-78
2022/01/13 14:27:28;;;;;;;;;;;6.60;99.90;;;;;;5156946;27;19915;-78
2022/01/13 14:29:54;;;;;;;;;;;6.60;99.90;;;;;;5156450;27;19911;-76
2022/01/13 14:32:21;;;;;;;;;;;6.60;99.90;;;;;;5157195;27;19918;-77
2022/01/13 14:34:49;;;;;;;;;;;6.60;99.90;;;;;;5156491;27;19913;-76
2022/01/13 14:37:15;;;;;;;;;;;6.60;99.90;;;;;;5153779;27;19957;-77
2022/01/13 14:39:41;;;;;;;;;;;6.60;99.90;;;;;;5145606;27;19951;-77
2022/01/13 14:42:27;;;;;;;;;;;6.50;99.90;;;;;;5141830;27;19950;-78
2022/01/13 14:45:13;;;;;;;;;;;6.50;99.90;;;;;;5146117;27;19947;-77
2022/01/13 14:47:38;;;;;;;;;;;6.50;99.90;;;;;;5144550;27;19979;-78
2022/01/13 14:50:04;;;;;;;;;;;6.50;99.90;;;;;;5145494;27;20356;-80
2022/01/13 14:52:30;;;;;;;;;;;6.50;99.90;;;;;;5146830;27;19911;-78
2022/01/13 14:54:56;;;;;;;;;;;6.50;99.90;;;;;;5144089;27;19914;-78
2022/01/13 14:57:21;;;;;;;;;;;6.50;99.90;;;;;;5146073;27;20071;-79
2022/01/13 14:59:47;;;;;;;;;;;6.50;99.90;;;;;;5126619;27;19960;-77
2022/01/13 15:02:12;;;;;;;;;;;6.50;99.90;;;;;;5144439;27;19911;-78
2022/01/13 15:04:38;;;;;;;;;;;6.50;99.90;;;;;;5145994;27;20321;-76
2022/01/13 15:07:03;;;;;;;;;;;6.50;99.90;;;;;;5144911;27;19911;-78